Terminal Aerodrome Forecast
Issued by NWS

Home | Current Version | Previous Version | Text Only | Print | Product List | Glossary On
Versions: 1 2 3 4 5 6 7 8 9 10 11 12 13 14 15 16 17 18 19 20 21 22 23 24 25 26 27 28 29 30 31 32 33 34 35 36 37 38
000
FTUS45 KBYZ 071720
TAFLVM
TAF
KLVM 071720Z 0718/0818 VRB05KT P6SM FEW200
     FM072000 07014G22KT P6SM VCTS SCT060CB BKN120
     FM080300 09013KT 6SM FU VCSH SCT050 BKN080
     FM080800 09013KT 6SM FU SCT050
     FM081500 09013G20KT P6SM SCT050=

USA.gov is the U.S. government's official web portal to all federal, state and local government web resources and services.